sensor_id;sensor_type;location;lat;lon;timestamp;P1;durP1;ratioP1;P2;durP2;ratioP2
18072;SDS011;9161;47.348;9.648;2023-06-22T00:03:08;10.68;;;4.88;;
18072;SDS011;9161;47.348;9.648;2023-06-22T00:08:11;14.10;;;5.05;;
18072;SDS011;9161;47.348;9.648;2023-06-22T00:13:14;12.50;;;5.05;;
18072;SDS011;9161;47.348;9.648;2023-06-22T00:18:18;15.00;;;4.93;;
18072;SDS011;9161;47.348;9.648;2023-06-22T00:23:21;11.38;;;4.68;;
18072;SDS011;9161;47.348;9.648;2023-06-22T00:28:23;10.35;;;5.28;;
18072;SDS011;9161;47.348;9.648;2023-06-22T00:33:25;13.52;;;4.85;;
18072;SDS011;9161;47.348;9.648;2023-06-22T00:38:30;14.07;;;5.00;;
18072;SDS011;9161;47.348;9.648;2023-06-22T00:43:32;10.02;;;4.13;;
18072;SDS011;9161;47.348;9.648;2023-06-22T00:48:34;12.38;;;4.97;;
18072;SDS011;9161;47.348;9.648;2023-06-22T00:53:38;10.40;;;4.75;;
18072;SDS011;9161;47.348;9.648;2023-06-22T00:58:41;10.52;;;4.60;;
18072;SDS011;9161;47.348;9.648;2023-06-22T01:03:43;15.32;;;4.68;;
18072;SDS011;9161;47.348;9.648;2023-06-22T01:08:49;14.75;;;5.25;;
18072;SDS011;9161;47.348;9.648;2023-06-22T01:13:59;10.88;;;4.95;;
18072;SDS011;9161;47.348;9.648;2023-06-22T01:19:09;9.32;;;5.18;;
18072;SDS011;9161;47.348;9.648;2023-06-22T01:24:32;11.18;;;5.45;;
18072;SDS011;9161;47.348;9.648;2023-06-22T01:29:43;14.60;;;5.45;;
18072;SDS011;9161;47.348;9.648;2023-06-22T01:34:46;14.02;;;5.43;;
18072;SDS011;9161;47.348;9.648;2023-06-22T01:39:49;10.23;;;5.72;;
18072;SDS011;9161;47.348;9.648;2023-06-22T01:44:54;10.60;;;5.38;;
18072;SDS011;9161;47.348;9.648;2023-06-22T01:49:59;13.10;;;5.82;;
18072;SDS011;9161;47.348;9.648;2023-06-22T01:55:01;15.63;;;6.18;;
18072;SDS011;9161;47.348;9.648;2023-06-22T02:00:07;20.48;;;5.55;;
18072;SDS011;9161;47.348;9.648;2023-06-22T02:05:16;10.80;;;5.15;;
18072;SDS011;9161;47.348;9.648;2023-06-22T02:10:20;10.93;;;5.93;;
18072;SDS011;9161;47.348;9.648;2023-06-22T02:15:25;11.85;;;5.90;;
18072;SDS011;9161;47.348;9.648;2023-06-22T02:20:28;10.98;;;5.38;;
18072;SDS011;9161;47.348;9.648;2023-06-22T02:25:30;10.40;;;5.05;;
18072;SDS011;9161;47.348;9.648;2023-06-22T02:30:34;14.07;;;5.55;;
18072;SDS011;9161;47.348;9.648;2023-06-22T02:35:35;18.05;;;6.32;;
18072;SDS011;9161;47.348;9.648;2023-06-22T02:40:39;12.52;;;5.93;;
18072;SDS011;9161;47.348;9.648;2023-06-22T02:45:43;14.45;;;5.88;;
18072;SDS011;9161;47.348;9.648;2023-06-22T02:50:45;13.32;;;6.03;;
18072;SDS011;9161;47.348;9.648;2023-06-22T02:55:47;12.40;;;6.85;;
18072;SDS011;9161;47.348;9.648;2023-06-22T03:00:51;20.15;;;7.55;;
18072;SDS011;9161;47.348;9.648;2023-06-22T03:05:53;13.65;;;5.93;;
18072;SDS011;9161;47.348;9.648;2023-06-22T03:10:55;18.27;;;6.97;;
18072;SDS011;9161;47.348;9.648;2023-06-22T03:15:58;15.45;;;6.00;;
18072;SDS011;9161;47.348;9.648;2023-06-22T03:21:00;17.90;;;6.47;;
18072;SDS011;9161;47.348;9.648;2023-06-22T03:26:02;14.35;;;6.65;;
18072;SDS011;9161;47.348;9.648;2023-06-22T03:31:06;14.85;;;7.05;;
18072;SDS011;9161;47.348;9.648;2023-06-22T03:36:08;14.70;;;7.20;;
18072;SDS011;9161;47.348;9.648;2023-06-22T03:41:11;22.90;;;7.40;;
18072;SDS011;9161;47.348;9.648;2023-06-22T03:46:14;15.48;;;6.80;;
18072;SDS011;9161;47.348;9.648;2023-06-22T03:51:16;14.38;;;6.68;;
18072;SDS011;9161;47.348;9.648;2023-06-22T03:56:18;17.00;;;6.82;;
18072;SDS011;9161;47.348;9.648;2023-06-22T04:01:21;16.95;;;6.63;;
18072;SDS011;9161;47.348;9.648;2023-06-22T04:06:26;14.80;;;6.65;;
18072;SDS011;9161;47.348;9.648;2023-06-22T04:11:28;18.88;;;6.72;;
18072;SDS011;9161;47.348;9.648;2023-06-22T04:16:32;23.05;;;7.60;;
18072;SDS011;9161;47.348;9.648;2023-06-22T04:21:34;21.20;;;7.63;;
18072;SDS011;9161;47.348;9.648;2023-06-22T04:26:37;15.02;;;6.35;;
18072;SDS011;9161;47.348;9.648;2023-06-22T04:31:47;19.05;;;6.60;;
18072;SDS011;9161;47.348;9.648;2023-06-22T04:36:51;26.30;;;7.10;;
18072;SDS011;9161;47.348;9.648;2023-06-22T04:41:53;22.92;;;7.03;;
18072;SDS011;9161;47.348;9.648;2023-06-22T04:47:02;25.25;;;6.80;;
18072;SDS011;9161;47.348;9.648;2023-06-22T04:52:09;14.65;;;6.63;;
18072;SDS011;9161;47.348;9.648;2023-06-22T04:57:13;18.08;;;6.45;;
18072;SDS011;9161;47.348;9.648;2023-06-22T05:02:16;17.60;;;7.10;;
18072;SDS011;9161;47.348;9.648;2023-06-22T05:07:19;29.50;;;7.65;;
18072;SDS011;9161;47.348;9.648;2023-06-22T05:12:21;13.93;;;6.60;;
18072;SDS011;9161;47.348;9.648;2023-06-22T05:17:25;24.48;;;7.07;;
18072;SDS011;9161;47.348;9.648;2023-06-22T05:22:27;17.05;;;6.35;;
18072;SDS011;9161;47.348;9.648;2023-06-22T05:27:29;60.97;;;9.18;;
18072;SDS011;9161;47.348;9.648;2023-06-22T05:32:33;23.27;;;7.78;;
18072;SDS011;9161;47.348;9.648;2023-06-22T05:37:36;24.67;;;7.60;;
18072;SDS011;9161;47.348;9.648;2023-06-22T05:42:38;17.02;;;6.38;;
18072;SDS011;9161;47.348;9.648;2023-06-22T05:47:41;22.83;;;7.30;;
18072;SDS011;9161;47.348;9.648;2023-06-22T05:52:43;16.55;;;6.85;;
18072;SDS011;9161;47.348;9.648;2023-06-22T05:57:46;17.85;;;7.63;;
18072;SDS011;9161;47.348;9.648;2023-06-22T06:02:49;42.20;;;8.23;;
18072;SDS011;9161;47.348;9.648;2023-06-22T06:07:51;29.88;;;8.07;;
18072;SDS011;9161;47.348;9.648;2023-06-22T06:12:54;24.85;;;7.05;;
18072;SDS011;9161;47.348;9.648;2023-06-22T06:17:57;19.27;;;6.95;;
18072;SDS011;9161;47.348;9.648;2023-06-22T06:22:59;18.70;;;6.95;;
18072;SDS011;9161;47.348;9.648;2023-06-22T06:28:02;15.40;;;6.80;;
18072;SDS011;9161;47.348;9.648;2023-06-22T06:33:06;21.45;;;6.47;;
18072;SDS011;9161;47.348;9.648;2023-06-22T06:38:09;20.15;;;6.65;;
18072;SDS011;9161;47.348;9.648;2023-06-22T06:43:12;17.50;;;7.18;;
18072;SDS011;9161;47.348;9.648;2023-06-22T06:48:15;33.13;;;7.40;;
18072;SDS011;9161;47.348;9.648;2023-06-22T06:53:17;38.13;;;7.55;;
18072;SDS011;9161;47.348;9.648;2023-06-22T06:58:19;21.77;;;7.18;;
18072;SDS011;9161;47.348;9.648;2023-06-22T07:03:24;24.42;;;7.15;;
18072;SDS011;9161;47.348;9.648;2023-06-22T07:08:26;15.73;;;6.07;;
18072;SDS011;9161;47.348;9.648;2023-06-22T07:13:28;18.73;;;6.18;;
18072;SDS011;9161;47.348;9.648;2023-06-22T07:18:32;12.68;;;6.07;;
18072;SDS011;9161;47.348;9.648;2023-06-22T07:23:34;16.98;;;6.10;;
18072;SDS011;9161;47.348;9.648;2023-06-22T07:28:37;16.00;;;6.45;;
18072;SDS011;9161;47.348;9.648;2023-06-22T07:33:42;19.13;;;6.90;;
18072;SDS011;9161;47.348;9.648;2023-06-22T07:38:44;19.10;;;6.72;;
18072;SDS011;9161;47.348;9.648;2023-06-22T07:43:47;16.50;;;6.43;;
18072;SDS011;9161;47.348;9.648;2023-06-22T07:48:51;17.50;;;6.47;;
18072;SDS011;9161;47.348;9.648;2023-06-22T07:53:55;15.52;;;5.60;;
18072;SDS011;9161;47.348;9.648;2023-06-22T07:58:57;16.75;;;6.15;;
18072;SDS011;9161;47.348;9.648;2023-06-22T08:04:02;16.02;;;6.95;;
18072;SDS011;9161;47.348;9.648;2023-06-22T08:09:05;64.57;;;9.80;;
18072;SDS011;9161;47.348;9.648;2023-06-22T08:14:08;18.95;;;6.35;;
18072;SDS011;9161;47.348;9.648;2023-06-22T08:19:11;17.27;;;7.25;;
18072;SDS011;9161;47.348;9.648;2023-06-22T08:24:14;18.10;;;7.97;;
18072;SDS011;9161;47.348;9.648;2023-06-22T08:29:17;21.48;;;7.90;;
18072;SDS011;9161;47.348;9.648;2023-06-22T08:34:21;16.92;;;7.68;;
18072;SDS011;9161;47.348;9.648;2023-06-22T08:39:25;14.15;;;7.70;;
18072;SDS011;9161;47.348;9.648;2023-06-22T08:44:28;18.40;;;6.82;;
18072;SDS011;9161;47.348;9.648;2023-06-22T08:49:32;49.58;;;9.57;;
18072;SDS011;9161;47.348;9.648;2023-06-22T08:54:34;24.52;;;8.63;;
18072;SDS011;9161;47.348;9.648;2023-06-22T08:59:36;16.25;;;8.25;;
18072;SDS011;9161;47.348;9.648;2023-06-22T09:04:40;15.40;;;7.78;;
18072;SDS011;9161;47.348;9.648;2023-06-22T09:09:42;19.27;;;8.10;;
18072;SDS011;9161;47.348;9.648;2023-06-22T09:14:44;22.73;;;8.05;;
18072;SDS011;9161;47.348;9.648;2023-06-22T09:19:48;18.80;;;8.23;;
18072;SDS011;9161;47.348;9.648;2023-06-22T09:24:50;19.05;;;8.40;;
18072;SDS011;9161;47.348;9.648;2023-06-22T09:29:52;19.15;;;8.10;;
18072;SDS011;9161;47.348;9.648;2023-06-22T09:34:56;20.83;;;8.20;;
18072;SDS011;9161;47.348;9.648;2023-06-22T09:39:59;14.07;;;7.38;;
18072;SDS011;9161;47.348;9.648;2023-06-22T09:45:01;21.83;;;7.68;;
18072;SDS011;9161;47.348;9.648;2023-06-22T09:50:06;16.50;;;8.52;;
18072;SDS011;9161;47.348;9.648;2023-06-22T09:55:08;22.98;;;9.60;;
18072;SDS011;9161;47.348;9.648;2023-06-22T10:00:11;20.60;;;8.93;;
18072;SDS011;9161;47.348;9.648;2023-06-22T10:05:16;32.58;;;8.85;;
18072;SDS011;9161;47.348;9.648;2023-06-22T10:10:19;19.98;;;8.25;;
18072;SDS011;9161;47.348;9.648;2023-06-22T10:15:21;18.33;;;8.32;;
18072;SDS011;9161;47.348;9.648;2023-06-22T10:20:25;24.80;;;9.10;;
18072;SDS011;9161;47.348;9.648;2023-06-22T10:25:28;26.70;;;8.77;;
18072;SDS011;9161;47.348;9.648;2023-06-22T10:30:30;19.05;;;7.55;;
18072;SDS011;9161;47.348;9.648;2023-06-22T10:35:34;20.75;;;8.95;;
18072;SDS011;9161;47.348;9.648;2023-06-22T10:40:38;15.10;;;7.95;;
18072;SDS011;9161;47.348;9.648;2023-06-22T10:45:40;16.70;;;6.90;;
18072;SDS011;9161;47.348;9.648;2023-06-22T10:50:44;24.45;;;7.80;;
18072;SDS011;9161;47.348;9.648;2023-06-22T10:55:47;17.42;;;6.80;;
18072;SDS011;9161;47.348;9.648;2023-06-22T11:00:56;16.83;;;6.50;;
18072;SDS011;9161;47.348;9.648;2023-06-22T11:06:00;34.47;;;7.13;;
18072;SDS011;9161;47.348;9.648;2023-06-22T11:11:02;13.57;;;7.75;;
18072;SDS011;9161;47.348;9.648;2023-06-22T11:16:04;16.90;;;7.65;;
18072;SDS011;9161;47.348;9.648;2023-06-22T11:21:08;15.85;;;6.68;;
18072;SDS011;9161;47.348;9.648;2023-06-22T11:26:14;57.25;;;9.63;;
18072;SDS011;9161;47.348;9.648;2023-06-22T11:31:19;17.77;;;7.18;;
18072;SDS011;9161;47.348;9.648;2023-06-22T11:36:29;17.02;;;7.78;;
18072;SDS011;9161;47.348;9.648;2023-06-22T11:41:33;18.10;;;6.88;;
18072;SDS011;9161;47.348;9.648;2023-06-22T11:46:35;16.23;;;7.60;;
18072;SDS011;9161;47.348;9.648;2023-06-22T11:51:39;29.48;;;8.30;;
18072;SDS011;9161;47.348;9.648;2023-06-22T11:56:41;17.48;;;7.55;;
18072;SDS011;9161;47.348;9.648;2023-06-22T12:01:45;20.38;;;8.43;;
18072;SDS011;9161;47.348;9.648;2023-06-22T12:06:49;19.42;;;8.48;;
18072;SDS011;9161;47.348;9.648;2023-06-22T12:11:51;18.48;;;7.03;;
18072;SDS011;9161;47.348;9.648;2023-06-22T12:16:53;19.60;;;7.32;;
18072;SDS011;9161;47.348;9.648;2023-06-22T12:21:56;24.35;;;7.57;;
18072;SDS011;9161;47.348;9.648;2023-06-22T12:26:59;17.45;;;8.32;;
18072;SDS011;9161;47.348;9.648;2023-06-22T12:32:02;18.13;;;8.00;;
18072;SDS011;9161;47.348;9.648;2023-06-22T12:37:06;23.95;;;7.75;;
18072;SDS011;9161;47.348;9.648;2023-06-22T12:42:09;21.17;;;7.70;;
18072;SDS011;9161;47.348;9.648;2023-06-22T12:47:12;21.10;;;6.72;;
18072;SDS011;9161;47.348;9.648;2023-06-22T12:52:15;26.90;;;7.93;;
18072;SDS011;9161;47.348;9.648;2023-06-22T12:57:17;16.92;;;7.15;;
18072;SDS011;9161;47.348;9.648;2023-06-22T13:02:20;16.27;;;6.35;;
18072;SDS011;9161;47.348;9.648;2023-06-22T13:07:24;21.80;;;6.68;;
18072;SDS011;9161;47.348;9.648;2023-06-22T13:12:26;12.93;;;6.65;;
18072;SDS011;9161;47.348;9.648;2023-06-22T13:17:29;19.48;;;7.35;;
18072;SDS011;9161;47.348;9.648;2023-06-22T13:22:33;14.45;;;5.90;;
18072;SDS011;9161;47.348;9.648;2023-06-22T13:27:40;14.50;;;6.05;;
18072;SDS011;9161;47.348;9.648;2023-06-22T13:32:43;16.50;;;6.03;;
18072;SDS011;9161;47.348;9.648;2023-06-22T13:37:47;13.02;;;5.90;;
18072;SDS011;9161;47.348;9.648;2023-06-22T13:42:49;15.43;;;5.88;;
18072;SDS011;9161;47.348;9.648;2023-06-22T13:47:55;16.35;;;6.28;;
18072;SDS011;9161;47.348;9.648;2023-06-22T13:52:59;15.10;;;6.00;;
18072;SDS011;9161;47.348;9.648;2023-06-22T13:58:01;29.88;;;6.47;;
18072;SDS011;9161;47.348;9.648;2023-06-22T14:03:03;19.70;;;6.20;;
18072;SDS011;9161;47.348;9.648;2023-06-22T14:08:07;16.73;;;5.65;;
18072;SDS011;9161;47.348;9.648;2023-06-22T14:13:30;27.05;;;6.38;;
18072;SDS011;9161;47.348;9.648;2023-06-22T14:18:32;18.08;;;6.10;;
18072;SDS011;9161;47.348;9.648;2023-06-22T14:23:36;21.38;;;5.32;;
18072;SDS011;9161;47.348;9.648;2023-06-22T14:28:38;17.40;;;6.60;;
18072;SDS011;9161;47.348;9.648;2023-06-22T14:33:43;17.55;;;6.47;;
18072;SDS011;9161;47.348;9.648;2023-06-22T14:38:48;16.58;;;5.50;;
18072;SDS011;9161;47.348;9.648;2023-06-22T14:43:50;17.58;;;6.68;;
18072;SDS011;9161;47.348;9.648;2023-06-22T14:48:52;15.38;;;6.07;;
18072;SDS011;9161;47.348;9.648;2023-06-22T14:53:56;16.80;;;6.30;;
18072;SDS011;9161;47.348;9.648;2023-06-22T14:58:58;21.00;;;5.90;;
18072;SDS011;9161;47.348;9.648;2023-06-22T15:04:00;12.82;;;5.28;;
18072;SDS011;9161;47.348;9.648;2023-06-22T15:09:04;20.58;;;5.88;;
18072;SDS011;9161;47.348;9.648;2023-06-22T15:14:06;32.25;;;7.28;;
18072;SDS011;9161;47.348;9.648;2023-06-22T15:19:11;126.63;;;19.92;;
18072;SDS011;9161;47.348;9.648;2023-06-22T15:24:15;21.75;;;8.85;;
18072;SDS011;9161;47.348;9.648;2023-06-22T15:29:17;23.38;;;8.32;;
18072;SDS011;9161;47.348;9.648;2023-06-22T15:34:20;18.10;;;7.88;;
18072;SDS011;9161;47.348;9.648;2023-06-22T15:39:24;23.92;;;7.40;;
18072;SDS011;9161;47.348;9.648;2023-06-22T15:44:27;23.30;;;7.68;;
18072;SDS011;9161;47.348;9.648;2023-06-22T15:49:29;19.63;;;8.43;;
18072;SDS011;9161;47.348;9.648;2023-06-22T15:54:33;21.40;;;6.75;;
18072;SDS011;9161;47.348;9.648;2023-06-22T15:59:35;17.95;;;7.00;;
18072;SDS011;9161;47.348;9.648;2023-06-22T16:04:37;14.40;;;7.00;;
18072;SDS011;9161;47.348;9.648;2023-06-22T16:09:41;15.68;;;6.70;;
18072;SDS011;9161;47.348;9.648;2023-06-22T16:14:44;16.38;;;6.22;;
18072;SDS011;9161;47.348;9.648;2023-06-22T16:19:46;14.82;;;6.20;;
18072;SDS011;9161;47.348;9.648;2023-06-22T16:24:49;13.05;;;6.22;;
18072;SDS011;9161;47.348;9.648;2023-06-22T16:29:52;17.02;;;5.68;;
18072;SDS011;9161;47.348;9.648;2023-06-22T16:34:54;16.20;;;6.07;;
18072;SDS011;9161;47.348;9.648;2023-06-22T16:39:58;20.23;;;6.47;;
18072;SDS011;9161;47.348;9.648;2023-06-22T16:45:01;14.75;;;6.30;;
18072;SDS011;9161;47.348;9.648;2023-06-22T16:50:03;16.30;;;6.85;;
18072;SDS011;9161;47.348;9.648;2023-06-22T16:55:09;16.63;;;6.00;;
18072;SDS011;9161;47.348;9.648;2023-06-22T17:00:12;19.23;;;6.28;;
18072;SDS011;9161;47.348;9.648;2023-06-22T17:05:15;16.05;;;6.53;;
18072;SDS011;9161;47.348;9.648;2023-06-22T17:10:20;19.05;;;6.97;;
18072;SDS011;9161;47.348;9.648;2023-06-22T17:15:23;17.08;;;8.13;;
18072;SDS011;9161;47.348;9.648;2023-06-22T17:20:28;21.92;;;7.53;;
18072;SDS011;9161;47.348;9.648;2023-06-22T17:25:32;16.30;;;7.03;;
18072;SDS011;9161;47.348;9.648;2023-06-22T17:30:41;19.00;;;6.75;;
18072;SDS011;9161;47.348;9.648;2023-06-22T17:36:01;17.42;;;6.80;;
18072;SDS011;9161;47.348;9.648;2023-06-22T17:41:27;22.38;;;7.05;;
18072;SDS011;9161;47.348;9.648;2023-06-22T17:46:35;17.02;;;4.32;;
18072;SDS011;9161;47.348;9.648;2023-06-22T17:51:38;14.77;;;4.82;;
18072;SDS011;9161;47.348;9.648;2023-06-22T17:56:43;12.90;;;4.57;;
18072;SDS011;9161;47.348;9.648;2023-06-22T18:01:51;16.48;;;5.20;;
18072;SDS011;9161;47.348;9.648;2023-06-22T18:06:54;17.67;;;5.03;;
18072;SDS011;9161;47.348;9.648;2023-06-22T18:11:59;13.25;;;4.93;;
18072;SDS011;9161;47.348;9.648;2023-06-22T18:17:06;18.85;;;5.40;;
18072;SDS011;9161;47.348;9.648;2023-06-22T18:22:09;17.73;;;5.10;;
18072;SDS011;9161;47.348;9.648;2023-06-22T18:27:13;18.08;;;6.03;;
18072;SDS011;9161;47.348;9.648;2023-06-22T18:32:17;21.60;;;6.78;;
18072;SDS011;9161;47.348;9.648;2023-06-22T18:37:19;23.00;;;6.15;;
18072;SDS011;9161;47.348;9.648;2023-06-22T18:42:24;19.20;;;7.90;;
18072;SDS011;9161;47.348;9.648;2023-06-22T18:47:30;17.98;;;5.65;;
18072;SDS011;9161;47.348;9.648;2023-06-22T18:52:33;18.08;;;5.88;;
18072;SDS011;9161;47.348;9.648;2023-06-22T18:57:39;16.13;;;6.57;;
18072;SDS011;9161;47.348;9.648;2023-06-22T19:02:42;16.45;;;6.50;;
18072;SDS011;9161;47.348;9.648;2023-06-22T19:07:57;16.42;;;5.53;;
18072;SDS011;9161;47.348;9.648;2023-06-22T19:13:24;14.38;;;5.35;;
18072;SDS011;9161;47.348;9.648;2023-06-22T19:18:31;17.50;;;5.03;;
18072;SDS011;9161;47.348;9.648;2023-06-22T19:23:35;18.15;;;4.78;;
18072;SDS011;9161;47.348;9.648;2023-06-22T19:28:45;9.88;;;3.13;;
18072;SDS011;9161;47.348;9.648;2023-06-22T19:33:52;9.15;;;3.00;;
18072;SDS011;9161;47.348;9.648;2023-06-22T19:38:57;7.00;;;2.70;;
18072;SDS011;9161;47.348;9.648;2023-06-22T19:44:01;7.30;;;2.55;;
18072;SDS011;9161;47.348;9.648;2023-06-22T19:49:05;8.55;;;2.28;;
18072;SDS011;9161;47.348;9.648;2023-06-22T19:54:10;6.10;;;2.38;;
18072;SDS011;9161;47.348;9.648;2023-06-22T19:59:19;5.93;;;1.33;;
18072;SDS011;9161;47.348;9.648;2023-06-22T20:04:26;8.73;;;1.83;;
18072;SDS011;9161;47.348;9.648;2023-06-22T20:09:30;4.07;;;1.80;;
18072;SDS011;9161;47.348;9.648;2023-06-22T20:14:35;2.22;;;1.00;;
18072;SDS011;9161;47.348;9.648;2023-06-22T20:19:38;2.83;;;0.90;;
18072;SDS011;9161;47.348;9.648;2023-06-22T20:24:41;4.13;;;1.27;;
18072;SDS011;9161;47.348;9.648;2023-06-22T20:29:45;1.80;;;0.93;;
18072;SDS011;9161;47.348;9.648;2023-06-22T20:34:47;1.60;;;0.82;;
18072;SDS011;9161;47.348;9.648;2023-06-22T20:39:50;4.68;;;0.88;;
18072;SDS011;9161;47.348;9.648;2023-06-22T20:44:54;2.33;;;0.80;;
18072;SDS011;9161;47.348;9.648;2023-06-22T20:49:56;2.03;;;0.60;;
18072;SDS011;9161;47.348;9.648;2023-06-22T20:54:59;1.13;;;0.57;;
18072;SDS011;9161;47.348;9.648;2023-06-22T21:00:03;3.05;;;0.70;;
18072;SDS011;9161;47.348;9.648;2023-06-22T21:05:08;5.13;;;0.82;;
18072;SDS011;9161;47.348;9.648;2023-06-22T21:10:10;2.90;;;0.50;;
18072;SDS011;9161;47.348;9.648;2023-06-22T21:15:15;1.55;;;0.60;;
18072;SDS011;9161;47.348;9.648;2023-06-22T21:20:18;1.20;;;0.60;;
18072;SDS011;9161;47.348;9.648;2023-06-22T21:25:19;1.00;;;0.50;;
18072;SDS011;9161;47.348;9.648;2023-06-22T21:30:23;1.67;;;0.73;;
18072;SDS011;9161;47.348;9.648;2023-06-22T21:35:26;1.52;;;0.80;;
18072;SDS011;9161;47.348;9.648;2023-06-22T21:40:29;2.58;;;0.90;;
18072;SDS011;9161;47.348;9.648;2023-06-22T21:45:33;2.13;;;0.60;;
18072;SDS011;9161;47.348;9.648;2023-06-22T21:50:35;1.05;;;0.80;;
18072;SDS011;9161;47.348;9.648;2023-06-22T21:55:37;1.92;;;0.57;;
18072;SDS011;9161;47.348;9.648;2023-06-22T22:00:41;1.13;;;0.80;;
18072;SDS011;9161;47.348;9.648;2023-06-22T22:05:43;3.08;;;0.70;;
18072;SDS011;9161;47.348;9.648;2023-06-22T22:10:45;1.92;;;0.50;;
18072;SDS011;9161;47.348;9.648;2023-06-22T22:15:49;1.40;;;0.77;;
18072;SDS011;9161;47.348;9.648;2023-06-22T22:20:52;3.30;;;0.65;;
18072;SDS011;9161;47.348;9.648;2023-06-22T22:25:54;1.38;;;0.77;;
18072;SDS011;9161;47.348;9.648;2023-06-22T22:30:58;3.13;;;0.65;;
18072;SDS011;9161;47.348;9.648;2023-06-22T22:36:01;2.92;;;0.63;;
18072;SDS011;9161;47.348;9.648;2023-06-22T22:41:05;2.05;;;0.73;;
18072;SDS011;9161;47.348;9.648;2023-06-22T22:46:08;2.67;;;0.60;;
18072;SDS011;9161;47.348;9.648;2023-06-22T22:51:10;3.20;;;0.88;;
18072;SDS011;9161;47.348;9.648;2023-06-22T22:56:12;1.60;;;0.60;;
18072;SDS011;9161;47.348;9.648;2023-06-22T23:01:16;0.80;;;0.50;;
18072;SDS011;9161;47.348;9.648;2023-06-22T23:06:18;3.33;;;0.70;;
18072;SDS011;9161;47.348;9.648;2023-06-22T23:11:21;2.42;;;0.93;;
18072;SDS011;9161;47.348;9.648;2023-06-22T23:16:25;1.10;;;0.65;;
18072;SDS011;9161;47.348;9.648;2023-06-22T23:21:28;1.33;;;0.60;;
18072;SDS011;9161;47.348;9.648;2023-06-22T23:26:30;2.03;;;0.82;;
18072;SDS011;9161;47.348;9.648;2023-06-22T23:31:34;2.00;;;0.80;;
18072;SDS011;9161;47.348;9.648;2023-06-22T23:36:36;1.15;;;0.73;;
18072;SDS011;9161;47.348;9.648;2023-06-22T23:41:38;4.25;;;1.13;;
18072;SDS011;9161;47.348;9.648;2023-06-22T23:46:42;7.05;;;1.15;;
18072;SDS011;9161;47.348;9.648;2023-06-22T23:51:44;1.13;;;0.82;;
18072;SDS011;9161;47.348;9.648;2023-06-22T23:56:47;3.03;;;1.20;;
